sensor_id;sensor_type;location;lat;lon;timestamp;P1;durP1;ratioP1;P2;durP2;ratioP2
22270;SDS011;11304;53.520;10.104;2022-09-09T00:04:13;47.00;;;28.95;;
22270;SDS011;11304;53.520;10.104;2022-09-09T00:09:45;36.03;;;25.85;;
22270;SDS011;11304;53.520;10.104;2022-09-09T00:12:38;34.10;;;25.77;;
22270;SDS011;11304;53.520;10.104;2022-09-09T00:15:16;33.55;;;26.02;;
22270;SDS011;11304;53.520;10.104;2022-09-09T00:25:37;37.92;;;26.52;;
22270;SDS011;11304;53.520;10.104;2022-09-09T00:28:18;25.83;;;23.02;;
22270;SDS011;11304;53.520;10.104;2022-09-09T00:30:47;26.40;;;23.38;;
22270;SDS011;11304;53.520;10.104;2022-09-09T00:33:13;54.08;;;25.15;;
22270;SDS011;11304;53.520;10.104;2022-09-09T00:35:53;29.67;;;22.98;;
22270;SDS011;11304;53.520;10.104;2022-09-09T00:38:30;39.20;;;23.80;;
22270;SDS011;11304;53.520;10.104;2022-09-09T00:41:14;27.33;;;22.30;;
22270;SDS011;11304;53.520;10.104;2022-09-09T00:44:03;26.50;;;23.02;;
22270;SDS011;11304;53.520;10.104;2022-09-09T00:49:48;27.17;;;23.40;;
22270;SDS011;11304;53.520;10.104;2022-09-09T00:52:40;37.15;;;22.80;;
22270;SDS011;11304;53.520;10.104;2022-09-09T00:55:24;38.85;;;22.75;;
22270;SDS011;11304;53.520;10.104;2022-09-09T00:58:10;35.83;;;22.17;;
22270;SDS011;11304;53.520;10.104;2022-09-09T01:00:44;28.10;;;22.15;;
22270;SDS011;11304;53.520;10.104;2022-09-09T01:03:26;49.22;;;22.17;;
22270;SDS011;11304;53.520;10.104;2022-09-09T01:10:59;42.78;;;24.23;;
22270;SDS011;11304;53.520;10.104;2022-09-09T01:13:31;30.35;;;25.02;;
22270;SDS011;11304;53.520;10.104;2022-09-09T01:16:04;28.50;;;24.33;;
22270;SDS011;11304;53.520;10.104;2022-09-09T01:18:37;40.38;;;24.92;;
22270;SDS011;11304;53.520;10.104;2022-09-09T01:26:44;35.03;;;26.50;;
22270;SDS011;11304;53.520;10.104;2022-09-09T01:29:17;29.95;;;24.40;;
22270;SDS011;11304;53.520;10.104;2022-09-09T01:34:56;31.35;;;24.08;;
22270;SDS011;11304;53.520;10.104;2022-09-09T01:37:22;61.05;;;27.73;;
22270;SDS011;11304;53.520;10.104;2022-09-09T01:39:47;34.70;;;25.58;;
22270;SDS011;11304;53.520;10.104;2022-09-09T01:42:13;28.88;;;23.17;;
22270;SDS011;11304;53.520;10.104;2022-09-09T01:44:41;27.60;;;22.92;;
22270;SDS011;11304;53.520;10.104;2022-09-09T01:47:06;45.80;;;25.00;;
22270;SDS011;11304;53.520;10.104;2022-09-09T01:49:32;37.15;;;25.15;;
22270;SDS011;11304;53.520;10.104;2022-09-09T01:51:58;38.67;;;24.48;;
22270;SDS011;11304;53.520;10.104;2022-09-09T01:54:26;34.50;;;21.80;;
22270;SDS011;11304;53.520;10.104;2022-09-09T02:02:18;60.92;;;23.08;;
22270;SDS011;11304;53.520;10.104;2022-09-09T02:04:57;70.00;;;23.98;;
22270;SDS011;11304;53.520;10.104;2022-09-09T02:07:39;34.22;;;22.17;;
22270;SDS011;11304;53.520;10.104;2022-09-09T02:10:28;28.25;;;19.73;;
22270;SDS011;11304;53.520;10.104;2022-09-09T02:13:02;65.90;;;21.02;;
22270;SDS011;11304;53.520;10.104;2022-09-09T02:15:43;37.42;;;19.20;;
22270;SDS011;11304;53.520;10.104;2022-09-09T02:18:27;19.85;;;17.85;;
22270;SDS011;11304;53.520;10.104;2022-09-09T02:20:59;26.60;;;19.50;;
22270;SDS011;11304;53.520;10.104;2022-09-09T02:23:27;35.05;;;19.38;;
22270;SDS011;11304;53.520;10.104;2022-09-09T02:25:55;22.80;;;17.33;;
22270;SDS011;11304;53.520;10.104;2022-09-09T02:28:23;21.13;;;17.83;;
22270;SDS011;11304;53.520;10.104;2022-09-09T02:30:52;21.50;;;17.63;;
22270;SDS011;11304;53.520;10.104;2022-09-09T02:33:21;27.15;;;16.88;;
22270;SDS011;11304;53.520;10.104;2022-09-09T02:35:51;16.77;;;15.07;;
22270;SDS011;11304;53.520;10.104;2022-09-09T02:38:17;19.88;;;17.88;;
22270;SDS011;11304;53.520;10.104;2022-09-09T02:40:45;17.53;;;15.63;;
22270;SDS011;11304;53.520;10.104;2022-09-09T02:43:10;20.83;;;17.92;;
22270;SDS011;11304;53.520;10.104;2022-09-09T02:45:40;18.92;;;17.02;;
22270;SDS011;11304;53.520;10.104;2022-09-09T02:51:35;20.17;;;18.05;;
22270;SDS011;11304;53.520;10.104;2022-09-09T02:56:56;19.67;;;17.50;;
22270;SDS011;11304;53.520;10.104;2022-09-09T02:59:31;22.73;;;19.52;;
22270;SDS011;11304;53.520;10.104;2022-09-09T03:01:59;22.00;;;19.48;;
22270;SDS011;11304;53.520;10.104;2022-09-09T03:04:24;20.27;;;18.05;;
22270;SDS011;11304;53.520;10.104;2022-09-09T03:06:50;22.40;;;17.98;;
22270;SDS011;11304;53.520;10.104;2022-09-09T03:09:16;23.55;;;20.45;;
22270;SDS011;11304;53.520;10.104;2022-09-09T03:11:42;30.10;;;20.33;;
22270;SDS011;11304;53.520;10.104;2022-09-09T03:14:09;22.48;;;20.02;;
22270;SDS011;11304;53.520;10.104;2022-09-09T03:16:36;22.05;;;19.75;;
22270;SDS011;11304;53.520;10.104;2022-09-09T03:19:02;21.58;;;19.02;;
22270;SDS011;11304;53.520;10.104;2022-09-09T03:21:28;22.85;;;19.50;;
22270;SDS011;11304;53.520;10.104;2022-09-09T03:23:54;25.08;;;20.45;;
22270;SDS011;11304;53.520;10.104;2022-09-09T03:26:19;27.35;;;21.25;;
22270;SDS011;11304;53.520;10.104;2022-09-09T03:28:45;25.67;;;19.88;;
22270;SDS011;11304;53.520;10.104;2022-09-09T03:31:11;23.13;;;19.20;;
22270;SDS011;11304;53.520;10.104;2022-09-09T03:33:37;26.42;;;19.27;;
22270;SDS011;11304;53.520;10.104;2022-09-09T03:36:04;23.85;;;19.92;;
22270;SDS011;11304;53.520;10.104;2022-09-09T03:38:30;27.02;;;18.83;;
22270;SDS011;11304;53.520;10.104;2022-09-09T03:40:57;29.95;;;18.75;;
22270;SDS011;11304;53.520;10.104;2022-09-09T03:43:23;35.47;;;19.63;;
22270;SDS011;11304;53.520;10.104;2022-09-09T03:45:50;39.17;;;18.45;;
22270;SDS011;11304;53.520;10.104;2022-09-09T03:48:16;44.35;;;20.35;;
22270;SDS011;11304;53.520;10.104;2022-09-09T03:50:44;29.25;;;19.63;;
22270;SDS011;11304;53.520;10.104;2022-09-09T03:53:14;27.38;;;20.17;;
22270;SDS011;11304;53.520;10.104;2022-09-09T03:55:47;40.95;;;18.77;;
22270;SDS011;11304;53.520;10.104;2022-09-09T03:58:20;25.73;;;19.90;;
22270;SDS011;11304;53.520;10.104;2022-09-09T04:01:02;20.90;;;18.67;;
22270;SDS011;11304;53.520;10.104;2022-09-09T04:03:29;25.88;;;19.85;;
22270;SDS011;11304;53.520;10.104;2022-09-09T04:05:56;26.00;;;20.73;;
22270;SDS011;11304;53.520;10.104;2022-09-09T04:08:24;42.00;;;20.77;;
22270;SDS011;11304;53.520;10.104;2022-09-09T04:10:51;30.25;;;19.60;;
22270;SDS011;11304;53.520;10.104;2022-09-09T04:13:17;29.42;;;19.45;;
22270;SDS011;11304;53.520;10.104;2022-09-09T04:15:49;28.83;;;18.98;;
22270;SDS011;11304;53.520;10.104;2022-09-09T04:18:19;29.27;;;18.67;;
22270;SDS011;11304;53.520;10.104;2022-09-09T04:20:46;37.80;;;19.55;;
22270;SDS011;11304;53.520;10.104;2022-09-09T04:23:15;25.48;;;18.52;;
22270;SDS011;11304;53.520;10.104;2022-09-09T04:25:53;24.25;;;19.98;;
22270;SDS011;11304;53.520;10.104;2022-09-09T04:28:21;23.30;;;19.17;;
22270;SDS011;11304;53.520;10.104;2022-09-09T04:30:48;21.30;;;19.10;;
22270;SDS011;11304;53.520;10.104;2022-09-09T04:33:14;24.92;;;21.02;;
22270;SDS011;11304;53.520;10.104;2022-09-09T04:35:44;26.10;;;20.50;;
22270;SDS011;11304;53.520;10.104;2022-09-09T04:38:11;25.88;;;21.35;;
22270;SDS011;11304;53.520;10.104;2022-09-09T04:40:37;27.33;;;21.10;;
22270;SDS011;11304;53.520;10.104;2022-09-09T04:43:07;29.38;;;21.17;;
22270;SDS011;11304;53.520;10.104;2022-09-09T04:45:33;25.33;;;20.92;;
22270;SDS011;11304;53.520;10.104;2022-09-09T04:47:59;24.95;;;20.55;;
22270;SDS011;11304;53.520;10.104;2022-09-09T04:50:25;24.05;;;20.30;;
22270;SDS011;11304;53.520;10.104;2022-09-09T04:52:51;25.23;;;20.85;;
22270;SDS011;11304;53.520;10.104;2022-09-09T04:55:17;25.92;;;21.05;;
22270;SDS011;11304;53.520;10.104;2022-09-09T04:57:42;24.63;;;20.30;;
22270;SDS011;11304;53.520;10.104;2022-09-09T05:00:08;23.73;;;19.27;;
22270;SDS011;11304;53.520;10.104;2022-09-09T05:02:38;27.65;;;20.75;;
22270;SDS011;11304;53.520;10.104;2022-09-09T05:05:05;23.85;;;19.38;;
22270;SDS011;11304;53.520;10.104;2022-09-09T05:07:31;21.52;;;18.42;;
22270;SDS011;11304;53.520;10.104;2022-09-09T05:09:57;24.60;;;19.52;;
22270;SDS011;11304;53.520;10.104;2022-09-09T05:12:23;22.15;;;18.58;;
22270;SDS011;11304;53.520;10.104;2022-09-09T05:14:51;23.17;;;18.13;;
22270;SDS011;11304;53.520;10.104;2022-09-09T05:17:17;23.17;;;18.90;;
22270;SDS011;11304;53.520;10.104;2022-09-09T05:19:43;27.17;;;18.45;;
22270;SDS011;11304;53.520;10.104;2022-09-09T05:22:09;22.98;;;17.90;;
22270;SDS011;11304;53.520;10.104;2022-09-09T05:24:36;23.08;;;17.92;;
22270;SDS011;11304;53.520;10.104;2022-09-09T05:27:03;28.08;;;17.88;;
22270;SDS011;11304;53.520;10.104;2022-09-09T05:29:31;23.25;;;17.92;;
22270;SDS011;11304;53.520;10.104;2022-09-09T05:31:58;20.77;;;16.85;;
22270;SDS011;11304;53.520;10.104;2022-09-09T05:34:24;19.00;;;16.42;;
22270;SDS011;11304;53.520;10.104;2022-09-09T05:36:50;21.20;;;16.83;;
22270;SDS011;11304;53.520;10.104;2022-09-09T05:39:17;18.98;;;16.60;;
22270;SDS011;11304;53.520;10.104;2022-09-09T05:41:43;18.30;;;15.35;;
22270;SDS011;11304;53.520;10.104;2022-09-09T05:44:09;18.80;;;15.80;;
22270;SDS011;11304;53.520;10.104;2022-09-09T05:46:34;17.05;;;15.10;;
22270;SDS011;11304;53.520;10.104;2022-09-09T05:49:01;16.60;;;14.68;;
22270;SDS011;11304;53.520;10.104;2022-09-09T05:51:28;19.70;;;16.27;;
22270;SDS011;11304;53.520;10.104;2022-09-09T05:53:55;16.58;;;14.80;;
22270;SDS011;11304;53.520;10.104;2022-09-09T05:56:24;19.60;;;15.40;;
22270;SDS011;11304;53.520;10.104;2022-09-09T05:58:51;18.60;;;13.98;;
22270;SDS011;11304;53.520;10.104;2022-09-09T06:01:25;15.98;;;14.27;;
22270;SDS011;11304;53.520;10.104;2022-09-09T06:03:55;15.98;;;13.40;;
22270;SDS011;11304;53.520;10.104;2022-09-09T06:06:22;15.60;;;13.38;;
22270;SDS011;11304;53.520;10.104;2022-09-09T06:08:51;15.50;;;13.50;;
22270;SDS011;11304;53.520;10.104;2022-09-09T06:11:20;12.20;;;9.70;;
22270;SDS011;11304;53.520;10.104;2022-09-09T06:13:49;15.32;;;12.45;;
22270;SDS011;11304;53.520;10.104;2022-09-09T06:16:19;14.98;;;13.13;;
22270;SDS011;11304;53.520;10.104;2022-09-09T06:18:48;13.23;;;11.82;;
22270;SDS011;11304;53.520;10.104;2022-09-09T06:21:17;13.50;;;12.05;;
22270;SDS011;11304;53.520;10.104;2022-09-09T06:23:45;13.95;;;11.57;;
22270;SDS011;11304;53.520;10.104;2022-09-09T06:28:39;13.70;;;11.77;;
22270;SDS011;11304;53.520;10.104;2022-09-09T06:31:09;15.57;;;11.07;;
22270;SDS011;11304;53.520;10.104;2022-09-09T06:33:39;13.68;;;10.75;;
22270;SDS011;11304;53.520;10.104;2022-09-09T06:36:13;12.27;;;10.68;;
22270;SDS011;11304;53.520;10.104;2022-09-09T06:38:47;12.65;;;10.45;;
22270;SDS011;11304;53.520;10.104;2022-09-09T06:41:13;13.20;;;10.48;;
22270;SDS011;11304;53.520;10.104;2022-09-09T06:43:40;18.08;;;10.40;;
22270;SDS011;11304;53.520;10.104;2022-09-09T06:46:09;11.63;;;9.57;;
22270;SDS011;11304;53.520;10.104;2022-09-09T06:48:38;12.90;;;9.15;;
22270;SDS011;11304;53.520;10.104;2022-09-09T06:51:11;12.15;;;9.13;;
22270;SDS011;11304;53.520;10.104;2022-09-09T06:53:42;10.73;;;9.63;;
22270;SDS011;11304;53.520;10.104;2022-09-09T06:58:35;16.00;;;10.02;;
22270;SDS011;11304;53.520;10.104;2022-09-09T07:01:15;10.27;;;8.77;;
22270;SDS011;11304;53.520;10.104;2022-09-09T07:03:44;9.82;;;8.05;;
22270;SDS011;11304;53.520;10.104;2022-09-09T07:06:16;10.48;;;7.57;;
22270;SDS011;11304;53.520;10.104;2022-09-09T07:08:48;8.80;;;7.75;;
22270;SDS011;11304;53.520;10.104;2022-09-09T07:11:15;7.35;;;6.25;;
22270;SDS011;11304;53.520;10.104;2022-09-09T07:13:41;8.30;;;6.60;;
22270;SDS011;11304;53.520;10.104;2022-09-09T07:16:09;8.68;;;5.95;;
22270;SDS011;11304;53.520;10.104;2022-09-09T07:18:36;10.07;;;5.85;;
22270;SDS011;11304;53.520;10.104;2022-09-09T07:21:02;8.18;;;5.88;;
22270;SDS011;11304;53.520;10.104;2022-09-09T07:23:29;6.95;;;5.55;;
22270;SDS011;11304;53.520;10.104;2022-09-09T07:25:56;9.52;;;4.90;;
22270;SDS011;11304;53.520;10.104;2022-09-09T07:28:23;6.60;;;4.80;;
22270;SDS011;11304;53.520;10.104;2022-09-09T07:30:55;6.82;;;4.63;;
22270;SDS011;11304;53.520;10.104;2022-09-09T07:33:22;5.07;;;4.57;;
22270;SDS011;11304;53.520;10.104;2022-09-09T07:35:49;5.57;;;4.28;;
22270;SDS011;11304;53.520;10.104;2022-09-09T07:38:15;5.57;;;3.60;;
22270;SDS011;11304;53.520;10.104;2022-09-09T07:40:41;5.53;;;4.00;;
22270;SDS011;11304;53.520;10.104;2022-09-09T07:43:06;9.82;;;4.40;;
22270;SDS011;11304;53.520;10.104;2022-09-09T07:45:35;6.10;;;3.53;;
22270;SDS011;11304;53.520;10.104;2022-09-09T07:48:01;6.13;;;3.65;;
22270;SDS011;11304;53.520;10.104;2022-09-09T07:50:27;6.68;;;3.88;;
22270;SDS011;11304;53.520;10.104;2022-09-09T07:52:53;6.03;;;3.60;;
22270;SDS011;11304;53.520;10.104;2022-09-09T07:55:22;7.03;;;3.83;;
22270;SDS011;11304;53.520;10.104;2022-09-09T07:57:50;4.90;;;3.33;;
22270;SDS011;11304;53.520;10.104;2022-09-09T08:00:16;5.95;;;3.28;;
22270;SDS011;11304;53.520;10.104;2022-09-09T08:02:44;4.60;;;3.28;;
22270;SDS011;11304;53.520;10.104;2022-09-09T08:05:11;4.72;;;3.60;;
22270;SDS011;11304;53.520;10.104;2022-09-09T08:07:37;6.75;;;3.15;;
22270;SDS011;11304;53.520;10.104;2022-09-09T08:10:04;4.63;;;2.63;;
22270;SDS011;11304;53.520;10.104;2022-09-09T08:12:31;4.57;;;2.80;;
22270;SDS011;11304;53.520;10.104;2022-09-09T08:14:57;4.93;;;2.70;;
22270;SDS011;11304;53.520;10.104;2022-09-09T08:17:23;5.88;;;2.85;;
22270;SDS011;11304;53.520;10.104;2022-09-09T08:19:50;4.50;;;2.78;;
22270;SDS011;11304;53.520;10.104;2022-09-09T08:22:16;4.60;;;2.80;;
22270;SDS011;11304;53.520;10.104;2022-09-09T08:24:42;6.00;;;2.60;;
22270;SDS011;11304;53.520;10.104;2022-09-09T08:27:08;5.75;;;2.78;;
22270;SDS011;11304;53.520;10.104;2022-09-09T08:29:35;4.72;;;2.47;;
22270;SDS011;11304;53.520;10.104;2022-09-09T08:32:03;7.00;;;2.90;;
22270;SDS011;11304;53.520;10.104;2022-09-09T08:34:29;4.70;;;2.17;;
22270;SDS011;11304;53.520;10.104;2022-09-09T08:36:56;4.60;;;2.28;;
22270;SDS011;11304;53.520;10.104;2022-09-09T08:39:22;4.20;;;2.40;;
22270;SDS011;11304;53.520;10.104;2022-09-09T08:42:08;4.95;;;2.45;;
22270;SDS011;11304;53.520;10.104;2022-09-09T08:44:44;2.55;;;1.83;;
22270;SDS011;11304;53.520;10.104;2022-09-09T08:52:21;4.50;;;2.45;;
22270;SDS011;11304;53.520;10.104;2022-09-09T08:54:48;5.38;;;2.65;;
22270;SDS011;11304;53.520;10.104;2022-09-09T08:57:18;4.75;;;2.17;;
22270;SDS011;11304;53.520;10.104;2022-09-09T08:59:46;2.65;;;2.10;;
22270;SDS011;11304;53.520;10.104;2022-09-09T09:02:15;3.58;;;2.17;;
22270;SDS011;11304;53.520;10.104;2022-09-09T09:07:13;5.72;;;2.40;;
22270;SDS011;11304;53.520;10.104;2022-09-09T09:09:52;3.58;;;1.77;;
22270;SDS011;11304;53.520;10.104;2022-09-09T09:12:26;6.88;;;2.38;;
22270;SDS011;11304;53.520;10.104;2022-09-09T09:17:21;6.20;;;2.10;;
22270;SDS011;11304;53.520;10.104;2022-09-09T09:19:49;3.22;;;1.70;;
22270;SDS011;11304;53.520;10.104;2022-09-09T09:24:45;5.82;;;2.20;;
22270;SDS011;11304;53.520;10.104;2022-09-09T09:27:15;5.90;;;1.90;;
22270;SDS011;11304;53.520;10.104;2022-09-09T09:29:42;4.68;;;1.83;;
22270;SDS011;11304;53.520;10.104;2022-09-09T09:32:13;4.78;;;2.30;;
22270;SDS011;11304;53.520;10.104;2022-09-09T09:34:40;5.63;;;2.08;;
22270;SDS011;11304;53.520;10.104;2022-09-09T09:37:12;4.68;;;1.85;;
22270;SDS011;11304;53.520;10.104;2022-09-09T09:39:44;6.10;;;2.13;;
22270;SDS011;11304;53.520;10.104;2022-09-09T09:42:12;7.38;;;1.83;;
22270;SDS011;11304;53.520;10.104;2022-09-09T09:44:39;5.18;;;2.03;;
22270;SDS011;11304;53.520;10.104;2022-09-09T09:47:20;4.00;;;2.03;;
22270;SDS011;11304;53.520;10.104;2022-09-09T09:49:56;5.32;;;1.85;;
22270;SDS011;11304;53.520;10.104;2022-09-09T09:52:25;4.05;;;1.75;;
22270;SDS011;11304;53.520;10.104;2022-09-09T09:54:52;4.80;;;2.10;;
22270;SDS011;11304;53.520;10.104;2022-09-09T09:57:18;3.17;;;1.60;;
22270;SDS011;11304;53.520;10.104;2022-09-09T09:59:49;4.70;;;2.00;;
22270;SDS011;11304;53.520;10.104;2022-09-09T10:02:31;3.08;;;1.48;;
22270;SDS011;11304;53.520;10.104;2022-09-09T10:05:16;4.35;;;1.70;;
22270;SDS011;11304;53.520;10.104;2022-09-09T10:07:42;5.25;;;1.90;;
22270;SDS011;11304;53.520;10.104;2022-09-09T10:10:16;4.32;;;1.40;;
22270;SDS011;11304;53.520;10.104;2022-09-09T10:13:04;4.45;;;1.75;;
22270;SDS011;11304;53.520;10.104;2022-09-09T10:16:06;4.13;;;1.67;;
22270;SDS011;11304;53.520;10.104;2022-09-09T10:18:34;4.28;;;1.23;;
22270;SDS011;11304;53.520;10.104;2022-09-09T10:34:03;3.85;;;1.10;;
22270;SDS011;11304;53.520;10.104;2022-09-09T10:51:22;3.60;;;1.40;;
22270;SDS011;11304;53.520;10.104;2022-09-09T10:56:24;6.32;;;1.98;;
22270;SDS011;11304;53.520;10.104;2022-09-09T10:58:52;3.42;;;1.30;;
22270;SDS011;11304;53.520;10.104;2022-09-09T11:01:24;3.72;;;1.25;;
22270;SDS011;11304;53.520;10.104;2022-09-09T11:03:55;3.75;;;1.25;;
22270;SDS011;11304;53.520;10.104;2022-09-09T11:06:25;5.80;;;1.75;;
22270;SDS011;11304;53.520;10.104;2022-09-09T11:08:54;2.95;;;1.30;;
22270;SDS011;11304;53.520;10.104;2022-09-09T11:11:27;7.50;;;1.48;;
22270;SDS011;11304;53.520;10.104;2022-09-09T11:16:27;3.70;;;1.30;;
22270;SDS011;11304;53.520;10.104;2022-09-09T11:18:58;3.35;;;1.10;;
22270;SDS011;11304;53.520;10.104;2022-09-09T11:21:28;4.25;;;1.40;;
22270;SDS011;11304;53.520;10.104;2022-09-09T11:24:05;3.15;;;1.30;;
22270;SDS011;11304;53.520;10.104;2022-09-09T11:26:48;5.20;;;1.42;;
22270;SDS011;11304;53.520;10.104;2022-09-09T11:34:36;20.27;;;1.88;;
22270;SDS011;11304;53.520;10.104;2022-09-09T11:39:38;4.93;;;1.30;;
22270;SDS011;11304;53.520;10.104;2022-09-09T11:42:20;3.90;;;1.20;;
22270;SDS011;11304;53.520;10.104;2022-09-09T11:44:49;4.55;;;1.30;;
22270;SDS011;11304;53.520;10.104;2022-09-09T11:47:19;4.40;;;1.40;;
22270;SDS011;11304;53.520;10.104;2022-09-09T11:53:16;3.75;;;1.33;;
22270;SDS011;11304;53.520;10.104;2022-09-09T11:55:48;6.72;;;1.40;;
22270;SDS011;11304;53.520;10.104;2022-09-09T11:58:26;3.42;;;1.20;;
22270;SDS011;11304;53.520;10.104;2022-09-09T12:00:57;3.55;;;1.40;;
22270;SDS011;11304;53.520;10.104;2022-09-09T12:08:58;5.50;;;1.55;;
22270;SDS011;11304;53.520;10.104;2022-09-09T12:11:31;4.75;;;1.30;;
22270;SDS011;11304;53.520;10.104;2022-09-09T12:13:58;3.28;;;1.20;;
22270;SDS011;11304;53.520;10.104;2022-09-09T12:16:35;6.53;;;1.50;;
22270;SDS011;11304;53.520;10.104;2022-09-09T12:21:41;2.63;;;1.10;;
22270;SDS011;11304;53.520;10.104;2022-09-09T12:24:14;7.07;;;1.48;;
22270;SDS011;11304;53.520;10.104;2022-09-09T12:30:12;6.90;;;1.45;;
22270;SDS011;11304;53.520;10.104;2022-09-09T12:32:41;3.13;;;1.17;;
22270;SDS011;11304;53.520;10.104;2022-09-09T12:35:11;2.88;;;1.20;;
22270;SDS011;11304;53.520;10.104;2022-09-09T12:37:41;7.07;;;1.93;;
22270;SDS011;11304;53.520;10.104;2022-09-09T12:40:24;5.80;;;1.80;;
22270;SDS011;11304;53.520;10.104;2022-09-09T12:42:50;8.55;;;2.17;;
22270;SDS011;11304;53.520;10.104;2022-09-09T12:45:17;6.25;;;1.80;;
22270;SDS011;11304;53.520;10.104;2022-09-09T12:50:30;7.38;;;2.20;;
22270;SDS011;11304;53.520;10.104;2022-09-09T12:52:58;4.85;;;1.60;;
22270;SDS011;11304;53.520;10.104;2022-09-09T12:55:31;7.53;;;1.77;;
22270;SDS011;11304;53.520;10.104;2022-09-09T12:58:03;3.38;;;1.58;;
22270;SDS011;11304;53.520;10.104;2022-09-09T13:00:31;6.10;;;1.52;;
22270;SDS011;11304;53.520;10.104;2022-09-09T13:03:00;5.43;;;1.48;;
22270;SDS011;11304;53.520;10.104;2022-09-09T13:05:41;3.42;;;1.60;;
22270;SDS011;11304;53.520;10.104;2022-09-09T13:08:10;4.38;;;1.60;;
22270;SDS011;11304;53.520;10.104;2022-09-09T13:10:44;4.15;;;1.73;;
22270;SDS011;11304;53.520;10.104;2022-09-09T13:15:52;5.15;;;1.90;;
22270;SDS011;11304;53.520;10.104;2022-09-09T13:18:22;4.75;;;1.55;;
22270;SDS011;11304;53.520;10.104;2022-09-09T13:20:52;4.60;;;1.45;;
22270;SDS011;11304;53.520;10.104;2022-09-09T13:23:19;3.53;;;1.40;;
22270;SDS011;11304;53.520;10.104;2022-09-09T13:25:54;5.60;;;1.67;;
22270;SDS011;11304;53.520;10.104;2022-09-09T13:28:21;3.30;;;1.40;;
22270;SDS011;11304;53.520;10.104;2022-09-09T13:33:28;4.55;;;1.70;;
22270;SDS011;11304;53.520;10.104;2022-09-09T13:36:05;5.20;;;1.80;;
22270;SDS011;11304;53.520;10.104;2022-09-09T13:38:55;7.38;;;1.85;;
22270;SDS011;11304;53.520;10.104;2022-09-09T13:41:25;7.20;;;2.33;;
22270;SDS011;11304;53.520;10.104;2022-09-09T13:43:58;5.32;;;2.10;;
22270;SDS011;11304;53.520;10.104;2022-09-09T13:46:37;3.40;;;1.50;;
22270;SDS011;11304;53.520;10.104;2022-09-09T13:51:40;4.55;;;1.38;;
22270;SDS011;11304;53.520;10.104;2022-09-09T13:54:09;4.65;;;1.98;;
22270;SDS011;11304;53.520;10.104;2022-09-09T13:56:36;3.05;;;1.67;;
22270;SDS011;11304;53.520;10.104;2022-09-09T13:59:04;5.27;;;2.10;;
22270;SDS011;11304;53.520;10.104;2022-09-09T14:01:34;4.43;;;1.88;;
22270;SDS011;11304;53.520;10.104;2022-09-09T14:04:02;5.57;;;2.10;;
22270;SDS011;11304;53.520;10.104;2022-09-09T14:06:30;5.37;;;2.07;;
22270;SDS011;11304;53.520;10.104;2022-09-09T14:08:57;7.00;;;2.40;;
22270;SDS011;11304;53.520;10.104;2022-09-09T14:11:24;9.32;;;2.80;;
22270;SDS011;11304;53.520;10.104;2022-09-09T14:13:50;6.35;;;3.08;;
22270;SDS011;11304;53.520;10.104;2022-09-09T14:16:16;4.72;;;2.58;;
22270;SDS011;11304;53.520;10.104;2022-09-09T14:18:43;7.97;;;3.42;;
22270;SDS011;11304;53.520;10.104;2022-09-09T14:21:11;11.93;;;2.95;;
22270;SDS011;11304;53.520;10.104;2022-09-09T14:23:37;3.63;;;2.20;;
22270;SDS011;11304;53.520;10.104;2022-09-09T14:26:05;5.57;;;2.33;;
22270;SDS011;11304;53.520;10.104;2022-09-09T14:28:32;6.43;;;2.50;;
22270;SDS011;11304;53.520;10.104;2022-09-09T14:31:01;5.28;;;1.88;;
22270;SDS011;11304;53.520;10.104;2022-09-09T14:33:28;7.78;;;2.15;;
22270;SDS011;11304;53.520;10.104;2022-09-09T14:35:55;4.82;;;1.90;;
22270;SDS011;11304;53.520;10.104;2022-09-09T14:38:23;4.28;;;2.00;;
22270;SDS011;11304;53.520;10.104;2022-09-09T14:40:49;5.35;;;2.20;;
22270;SDS011;11304;53.520;10.104;2022-09-09T14:43:15;5.18;;;2.10;;
22270;SDS011;11304;53.520;10.104;2022-09-09T14:45:41;5.88;;;2.40;;
22270;SDS011;11304;53.520;10.104;2022-09-09T14:48:08;7.68;;;2.88;;
22270;SDS011;11304;53.520;10.104;2022-09-09T14:50:34;6.15;;;2.97;;
22270;SDS011;11304;53.520;10.104;2022-09-09T14:53:05;6.70;;;2.30;;
22270;SDS011;11304;53.520;10.104;2022-09-09T14:57:59;5.65;;;1.67;;
22270;SDS011;11304;53.520;10.104;2022-09-09T15:00:25;7.13;;;2.10;;
22270;SDS011;11304;53.520;10.104;2022-09-09T15:02:52;4.43;;;1.92;;
22270;SDS011;11304;53.520;10.104;2022-09-09T15:05:18;4.97;;;1.52;;
22270;SDS011;11304;53.520;10.104;2022-09-09T15:07:44;4.72;;;1.52;;
22270;SDS011;11304;53.520;10.104;2022-09-09T15:10:10;4.13;;;1.70;;
22270;SDS011;11304;53.520;10.104;2022-09-09T15:12:36;2.80;;;1.52;;
22270;SDS011;11304;53.520;10.104;2022-09-09T15:15:03;6.18;;;2.05;;
22270;SDS011;11304;53.520;10.104;2022-09-09T15:17:30;2.90;;;1.48;;
22270;SDS011;11304;53.520;10.104;2022-09-09T15:19:56;4.00;;;1.30;;
22270;SDS011;11304;53.520;10.104;2022-09-09T15:22:22;4.50;;;1.40;;
22270;SDS011;11304;53.520;10.104;2022-09-09T15:24:49;3.55;;;1.20;;
22270;SDS011;11304;53.520;10.104;2022-09-09T15:27:15;3.00;;;1.10;;
22270;SDS011;11304;53.520;10.104;2022-09-09T15:29:43;2.17;;;1.17;;
22270;SDS011;11304;53.520;10.104;2022-09-09T15:32:09;3.45;;;1.05;;
22270;SDS011;11304;53.520;10.104;2022-09-09T15:34:36;5.22;;;1.10;;
22270;SDS011;11304;53.520;10.104;2022-09-09T15:37:01;3.25;;;1.05;;
22270;SDS011;11304;53.520;10.104;2022-09-09T15:39:27;3.83;;;1.25;;
22270;SDS011;11304;53.520;10.104;2022-09-09T15:41:53;6.78;;;1.52;;
22270;SDS011;11304;53.520;10.104;2022-09-09T15:44:20;3.88;;;1.50;;
22270;SDS011;11304;53.520;10.104;2022-09-09T15:46:50;7.47;;;2.07;;
22270;SDS011;11304;53.520;10.104;2022-09-09T15:49:25;5.95;;;1.67;;
22270;SDS011;11304;53.520;10.104;2022-09-09T15:51:55;4.68;;;2.03;;
22270;SDS011;11304;53.520;10.104;2022-09-09T15:54:28;3.72;;;1.67;;
22270;SDS011;11304;53.520;10.104;2022-09-09T15:56:58;4.43;;;1.60;;
22270;SDS011;11304;53.520;10.104;2022-09-09T15:59:26;6.47;;;2.05;;
22270;SDS011;11304;53.520;10.104;2022-09-09T16:01:53;5.28;;;1.70;;
22270;SDS011;11304;53.520;10.104;2022-09-09T16:04:20;3.40;;;1.42;;
22270;SDS011;11304;53.520;10.104;2022-09-09T16:06:51;6.25;;;1.83;;
22270;SDS011;11304;53.520;10.104;2022-09-09T16:09:18;5.07;;;1.60;;
22270;SDS011;11304;53.520;10.104;2022-09-09T16:11:44;5.80;;;1.80;;
22270;SDS011;11304;53.520;10.104;2022-09-09T16:14:10;3.78;;;1.48;;
22270;SDS011;11304;53.520;10.104;2022-09-09T16:16:36;3.70;;;1.33;;
22270;SDS011;11304;53.520;10.104;2022-09-09T16:19:06;4.32;;;1.58;;
22270;SDS011;11304;53.520;10.104;2022-09-09T16:21:35;4.20;;;1.38;;
22270;SDS011;11304;53.520;10.104;2022-09-09T16:24:03;4.63;;;1.50;;
22270;SDS011;11304;53.520;10.104;2022-09-09T16:26:31;4.75;;;1.77;;
22270;SDS011;11304;53.520;10.104;2022-09-09T16:28:58;5.95;;;1.38;;
22270;SDS011;11304;53.520;10.104;2022-09-09T16:31:25;4.38;;;1.23;;
22270;SDS011;11304;53.520;10.104;2022-09-09T16:33:52;3.95;;;1.50;;
22270;SDS011;11304;53.520;10.104;2022-09-09T16:36:22;3.78;;;1.40;;
22270;SDS011;11304;53.520;10.104;2022-09-09T16:38:54;8.20;;;1.50;;
22270;SDS011;11304;53.520;10.104;2022-09-09T16:41:22;1.92;;;1.20;;
22270;SDS011;11304;53.520;10.104;2022-09-09T16:43:55;3.55;;;1.27;;
22270;SDS011;11304;53.520;10.104;2022-09-09T16:46:26;3.85;;;1.30;;